Nearby METAR Reports

 

KCFV - Coffeyville, Kansas, USA
Distance from station: ENE 93mi, 150km
Updated: Wed, 11-14-2018 4:52am CST
Clear
Clear
 Wind from calm
Wind: Calm
Temperature: 16°F , -9°C
Dew Point: 14°F , -10°C
Humidity: 93%
Barometer: 1033.5 hPa
Clouds: Clear
Visibility: 10 miles , 16 km
2018/11/14 10:52 KCFV 141052Z AUTO 00000KT 10SM CLR M09/M10 A3052 RMK AO2 SLP346 I1000 T10891100
KIDP - Independence, Kansas, USA
Distance from station: NE 86mi, 138km
Updated: Wed, 11-14-2018 4:50am CST
Clear
Clear
 Wind from calm
Wind: Calm
Temperature: 16°F , -9°C
Dew Point: 12°F , -11°C
Humidity: 86%
Barometer: 1033.5 hPa
Clouds: Clear
Visibility: 10 miles , 16 km
2018/11/14 10:50 KIDP 141050Z AUTO 00000KT 10SM CLR M09/M11 A3052 RMK AO2 T10951107
KIAB - Mcconnell Afb, Kansas, USA
Distance from station: N 84mi, 135km
Updated: Wed, 11-14-2018 4:56am CST
Clear
Clear
 Wind from S
Wind: S 6 mph , 9 km/h
Temperature: 21°F , -6°C
Wind Chill: 13°F , -11°C
Dew Point: 16°F , -9°C
Humidity: 80%
Barometer: 1031.5 hPa
Clouds: Clear
Visibility: 10 miles , 16 km
2018/11/14 10:56 KIAB 141056Z AUTO 18005KT 10SM CLR M06/M09 A3046 RMK AO2 SLP335 T10651091
 
KICT - Wichita, Kansas, USA
Distance from station: NNW 88mi, 142km
Updated: Wed, 11-14-2018 4:53am CST
Clear
Clear
 Wind from SSE
Wind: SSE 3 mph , 6 km/h
Temperature: 19°F , -7°C
Dew Point: 18°F , -8°C
Humidity: 93%
Barometer: 1031.8 hPa
Clouds: Clear
Visibility: 10 miles , 16 km
2018/11/14 10:53 KICT 141053Z 15003KT 10SM CLR M07/M08 A3047 RMK AO2 SLP334 T10721083 $
KAAO - Wichita/Jabara, Kansas, USA
Distance from station: N 93mi, 149km
Updated: Wed, 11-14-2018 4:54am CST
Clear
Clear
 Wind from SSE
Wind: SSE 3 mph , 6 km/h
Temperature: 18°F , -8°C
Dew Point: 18°F , -8°C
Humidity: 100%
Barometer: 1031.8 hPa
Clouds: Clear
Visibility: 10 miles , 16 km
2018/11/14 10:54 KAAO 141054Z AUTO 15003KT 10SM CLR M08/M08 A3047 RMK AO2 SLP337 T10781083
KWLD - Winfield/Arkansa, Kansas, USA
Distance from station: N 52mi, 84km
Updated: Wed, 11-14-2018 4:54am CST
Clear
Clear
 Wind from calm
Wind: Calm
Temperature: 19°F , -7°C
Dew Point: 16°F , -9°C
Humidity: 86%
Barometer: 1032.5 hPa
Clouds: Clear
Visibility: 10 miles , 16 km
2018/11/14 10:54 KWLD 141054Z AUTO 00000KT 10SM CLR M07/M09 A3049 RMK AO2 SLP341 T10721089
 
KAVK - Alva, Oklahoma, USA
Distance from station: WNW 94mi, 152km
Updated: Wed, 11-14-2018 4:55am CST
Clear
Clear
 Wind from calm
Wind: Calm
Temperature: 21°F , -6°C
Dew Point: 19°F , -7°C
Humidity: 93%
Barometer: 1031.2 hPa
Clouds: Clear
Visibility: 10 miles , 16 km
2018/11/14 10:55 KAVK 141055Z AUTO 00000KT 10SM CLR M06/M07 A3045 RMK AO2
KBVO - Bartlesville, Oklahoma, USA
Distance from station: ENE 61mi, 98km
Updated: Wed, 11-14-2018 4:53am CST
Clear
Clear
 Wind from calm
Wind: Calm
Temperature: 12°F , -11°C
Dew Point: 10°F , -12°C
Humidity: 92%
Barometer: 1034.2 hPa
Clouds: Clear
Visibility: 10 miles , 16 km
2018/11/14 10:53 KBVO 141053Z AUTO 00000KT 10SM CLR M11/M12 A3054 RMK AO2 SLP348 I1000 T11061122
KBKN - Blackwell, Oklahoma, USA
Distance from station: NW 29mi, 47km
Updated: Wed, 11-14-2018 4:55am CST

 Wind from calm
Wind: Calm
Temperature: 21°F , -6°C
Dew Point: 21°F , -6°C
Humidity: 100%
Barometer: 1033.5 hPa
Visibility: 10 miles , 16 km
2018/11/14 10:55 KBKN 141055Z AUTO 00000KT 10SM M06/M06 A3052 RMK AO2
 
KGCM - Claremore, Oklahoma, USA
Distance from station: E 86mi, 138km
Updated: Wed, 11-14-2018 4:55am CST
Clear
Clear
 Wind from calm
Wind: Calm
Temperature: 18°F , -8°C
Dew Point: 14°F , -10°C
Humidity: 86%
Barometer: 1033.9 hPa
Clouds: Clear
Visibility: 10 miles , 16 km
2018/11/14 10:55 KGCM 141055Z AUTO 00000KT 10SM CLR M08/M10 A3053 RMK AO2 TSNO
KCQB - Chandler, Oklahoma, USA
Distance from station: SSE 50mi, 80km
Updated: Wed, 11-14-2018 4:55am CST
Clear
Clear
 Wind from calm
Wind: Calm
Temperature: 18°F , -8°C
Dew Point: 16°F , -9°C
Humidity: 93%
Barometer: 1032.8 hPa
Clouds: Clear
Visibility: 10 miles , 16 km
2018/11/14 10:55 KCQB 141055Z AUTO 00000KT 10SM CLR M08/M09 A3050 RMK AO2 T10821092
KCUH - Cushing, Oklahoma, USA
Distance from station: SSE 35mi, 57km
Updated: Wed, 11-14-2018 4:55am CST
Clear
Clear
 Wind from calm
Wind: Calm
Temperature: 16°F , -9°C
Dew Point: 14°F , -10°C
Humidity: 93%
Barometer: 1032.8 hPa
Clouds: Clear
Visibility: 10 miles , 16 km
2018/11/14 10:55 KCUH 141055Z AUTO 00000KT 10SM CLR M09/M10 A3050 RMK AO2 T10891099
 
KRQO - El Reno Muni, Oklahoma, USA
Distance from station: SW 85mi, 137km
Updated: Wed, 11-14-2018 4:55am CST
Clear
Clear
 Wind from S
Wind: S 5 mph , 7 km/h
Temperature: 19°F , -7°C
Wind Chill: 12°F , -11°C
Dew Point: 18°F , -8°C
Humidity: 93%
Barometer: 1032.2 hPa
Clouds: Clear
Visibility: 7 miles , 11 km
2018/11/14 10:55 KRQO 141055Z AUTO 19004KT 7SM CLR M07/M08 A3048 RMK AO2 T10671081
KEND - Enid/Vance Afb, Oklahoma, USA
Distance from station: W 50mi, 81km
Updated: Wed, 11-14-2018 4:56am CST
Clear
Clear
 Wind from calm
Wind: Calm
Temperature: 21°F , -6°C
Dew Point: 18°F , -8°C
Humidity: 86%
Barometer: 1031.2 hPa
Clouds: Clear
Visibility: 10 miles , 16 km
2018/11/14 10:56 KEND 141056Z AUTO 00000KT 10SM CLR M06/M08 A3045 RMK AO2 SLP329 T10591083 VISNO RWY35C $
KWDG - Enid/Woodring, Oklahoma, USA
Distance from station: W 42mi, 67km
Updated: Wed, 11-14-2018 4:55am CST
Clear
Clear
 Wind from calm
Wind: Calm
Temperature: 21°F , -6°C
Dew Point: 21°F , -6°C
Humidity: 100%
Barometer: 1031.5 hPa
Clouds: Clear
Visibility: 10 miles , 16 km
2018/11/14 10:55 KWDG 141055Z AUTO 00000KT 10SM CLR M06/M06 A3046 RMK AO2
 
KGOK - Guthrie, Oklahoma, USA
Distance from station: SSW 44mi, 71km
Updated: Wed, 11-14-2018 4:53am CST
Clear
Clear
 Wind from SSE
Wind: SSE 3 mph , 6 km/h
Temperature: 16°F , -9°C
Dew Point: 12°F , -11°C
Humidity: 86%
Barometer: 1032.2 hPa
Clouds: Clear
Visibility: 10 miles , 16 km
2018/11/14 10:53 KGOK 141053Z AUTO 16003KT 10SM CLR M09/M11 A3048 RMK AO2 SLP339 I1000 T10891106
KOUN - Norman/Westheime, Oklahoma, USA
Distance from station: SSW 84mi, 136km
Updated: Wed, 11-14-2018 4:55am CST
Clear
Clear
 Wind from S
Wind: S 22 mph , 35 km/h, Gust: 123 mph , 198 km/h
Temperature: 21°F , -6°C
Wind Chill: 5°F , -15°C
Dew Point: 18°F , -8°C
Humidity: 86%
Barometer: 1031.5 hPa
Clouds: Clear
Visibility: 10 miles , 16 km
2018/11/14 10:55 KOUN 141055Z AUTO 18019G107KT 10SM CLR M06/M08 A3046 RMK AO2 T10631078
KOKC - Oklahoma City, Oklahoma, USA
Distance from station: SSW 78mi, 126km
Updated: Wed, 11-14-2018 4:52am CST
Clear
Clear
 Wind from calm
Wind: Calm
Temperature: 19°F , -7°C
Dew Point: 16°F , -9°C
Humidity: 86%
Barometer: 1031.8 hPa
Clouds: Clear
Visibility: 10 miles , 16 km
2018/11/14 10:52 KOKC 141052Z 00000KT 10SM CLR M07/M09 A3047 RMK AO2 SLP333 T10721094
 
KPWA - Okla City/Wiley, Oklahoma, USA
Distance from station: SSW 70mi, 113km
Updated: Wed, 11-14-2018 4:53am CST
Clear
Clear
 Wind from calm
Wind: Calm
Temperature: 19°F , -7°C
Dew Point: 16°F , -9°C
Humidity: 86%
Barometer: 1032.2 hPa
Clouds: Clear
Visibility: 8 miles , 13 km
2018/11/14 10:53 KPWA 141053Z AUTO 00000KT 8SM CLR M07/M09 A3048 RMK AO2 SLP335 T10721089
KRCE - Okla City/Page, Oklahoma, USA
Distance from station: SW 78mi, 126km
Updated: Wed, 11-14-2018 4:55am CST
Clear
Clear
 Wind from S
Wind: S 5 mph , 7 km/h
Temperature: 21°F , -6°C
Wind Chill: 14°F , -10°C
Dew Point: 19°F , -7°C
Humidity: 93%
Barometer: 1031.8 hPa
Clouds: Clear
Visibility: 10 miles , 16 km
2018/11/14 10:55 KRCE 141055Z AUTO 17004KT 10SM CLR M06/M07 A3047 RMK AO2
KOKM - Okmulgee, Oklahoma, USA
Distance from station: SE 79mi, 127km
Updated: Wed, 11-14-2018 4:55am CST
Clear
Clear
 Wind from calm
Wind: Calm
Temperature: 16°F , -9°C
Dew Point: 16°F , -9°C
Humidity: 100%
Barometer: 1033.2 hPa
Clouds: Clear
Visibility: 10 miles , 16 km
2018/11/14 10:55 KOKM 141055Z AUTO 00000KT 10SM CLR M09/M09 A3051 RMK AO2 T10871093
 
KPNC - Ponca City, Oklahoma, USA
Distance from station: N 22mi, 36km
Updated: Wed, 11-14-2018 4:53am CST
Clear
Clear
 Wind from calm
Wind: Calm
Temperature: 18°F , -8°C
Dew Point: 12°F , -11°C
Humidity: 79%
Barometer: 1032.5 hPa
Clouds: Clear
Visibility: 10 miles , 16 km
2018/11/14 10:53 KPNC 141053Z AUTO 00000KT 10SM CLR M08/M11 A3049 RMK AO2 SLP336 I1000 T10831106 TSNO
KSNL - Shawnee, Oklahoma, USA
Distance from station: S 74mi, 119km
Updated: Wed, 11-14-2018 4:55am CST
Clear
Clear
 Wind from calm
Wind: Calm
Temperature: 18°F , -8°C
Dew Point: 14°F , -10°C
Humidity: 86%
Barometer: 1032.5 hPa
Clouds: Clear
Visibility: 10 miles , 16 km
2018/11/14 10:55 KSNL 141055Z AUTO 00000KT 10SM CLR M08/M10 A3049 RMK AO2 T10811099
KSWO - Stillwater, Oklahoma, USA
Distance from station: S 17mi, 28km
Updated: Wed, 11-14-2018 4:53am CST
Clear
Clear
 Wind from calm
Wind: Calm
Temperature: 18°F , -8°C
Dew Point: 12°F , -11°C
Humidity: 79%
Barometer: 1032.5 hPa
Clouds: Clear
Visibility: 10 miles , 16 km
2018/11/14 10:53 KSWO 141053Z AUTO 00000KT 10SM CLR M08/M11 A3049 RMK AO2 SLP336 T10831111
 
KTIK - Tinker Afb, Oklahoma, USA
Distance from station: SSW 72mi, 115km
Updated: Wed, 11-14-2018 4:56am CST
Clear
Clear
 Wind from calm
Wind: Calm
Temperature: 25°F , -4°C
Dew Point: 18°F , -8°C
Humidity: 74%
Barometer: 1031.5 hPa
Clouds: Clear
Visibility: 10 miles , 16 km
2018/11/14 10:56 KTIK 141056Z AUTO 00000KT 10SM CLR M04/M08 A3046 RMK AO2 SLP337 T10441083
KTUL - Tulsa, Oklahoma, USA
Distance from station: ESE 65mi, 105km
Updated: Wed, 11-14-2018 4:53am CST
Few Clouds
Few Clouds
 Wind from calm
Wind: Calm
Temperature: 19°F , -7°C
Dew Point: 16°F , -9°C
Humidity: 86%
Barometer: 1033.2 hPa
Clouds: Few Clouds
Visibility: 10 miles , 16 km
Cloud details: Few Clouds 15000 ft
2018/11/14 10:53 KTUL 141053Z 00000KT 10SM FEW150 M07/M09 A3051 RMK AO2 SLP339 T10671089